Gomera (San Sebastian), Spain
Current Conditions -  °F | °C
As of 5:00 PM on Thursday 30 Oct 2014 (Local Time) from GCTS Reporting Station
Broken Clouds Broken Clouds  
Wind Chill: 75°   Ceiling: 4000
Heat Index: 75°   Visibility: 6mi
Dew Point: 64°   Wind: 2mph
Humidity: 69%   Direction: NA
Pressure: 29.97"   Gusts: NA
Location:  28.09°N, 17.11°W
Report Text: GCTS 301700Z VRB02KT 9999 BKN040 24/18 Q1015 NOSIG
Loading
Personal Weather Stations






























Interactive Weather Map
Tropical Storm Tracking
New forecast layout! Learn more

10-Day Weather Forecast

Advertisements
Track Severe Weather on mobile